createdAt,value
2023-01-28T00:00:31.825Z,5.28
2023-01-28T00:03:01.660Z,5.28
2023-01-28T00:05:34.517Z,5.43
2023-01-28T00:08:05.222Z,5.45
2023-01-28T00:10:35.037Z,4.95
2023-01-28T00:13:04.899Z,4.72
2023-01-28T00:15:34.665Z,4.65
2023-01-28T00:18:04.428Z,5.05
2023-01-28T00:20:38.024Z,4.95
2023-01-28T00:23:07.927Z,4.13
2023-01-28T00:25:37.742Z,4.50
2023-01-28T00:28:07.546Z,4.55
2023-01-28T00:30:38.266Z,4.20
2023-01-28T00:33:08.135Z,4.28
2023-01-28T00:35:40.573Z,3.92
2023-01-28T00:38:10.425Z,4.32
2023-01-28T00:40:40.366Z,4.25
2023-01-28T00:43:10.230Z,4.57
2023-01-28T00:45:40.007Z,4.47
2023-01-28T00:48:09.882Z,4.30
2023-01-28T00:50:42.325Z,3.83
2023-01-28T00:53:12.197Z,4.57
2023-01-28T00:55:42.034Z,4.32
2023-01-28T00:58:11.831Z,4.00
2023-01-28T01:00:41.621Z,3.70
2023-01-28T01:03:11.403Z,3.60
2023-01-28T01:05:43.847Z,3.35
2023-01-28T01:08:13.723Z,3.88
2023-01-28T01:10:44.100Z,4.20
2023-01-28T01:13:13.923Z,4.03
2023-01-28T01:15:43.800Z,4.30
2023-01-28T01:18:13.615Z,4.00
2023-01-28T01:20:46.019Z,3.85
2023-01-28T01:23:15.873Z,4.05
2023-01-28T01:25:45.775Z,4.15
2023-01-28T01:28:15.707Z,3.95
2023-01-28T01:30:45.468Z,4.15
2023-01-28T01:33:15.736Z,4.18
2023-01-28T01:35:55.761Z,4.90
2023-01-28T01:38:25.584Z,4.68
2023-01-28T01:40:55.664Z,3.88
2023-01-28T01:43:25.828Z,4.03
2023-01-28T01:45:58.963Z,3.55
2023-01-28T01:48:35.063Z,3.42
2023-01-28T01:51:12.142Z,3.67
2023-01-28T01:53:46.190Z,3.65
2023-01-28T01:56:19.538Z,3.72
2023-01-28T01:58:53.554Z,4.03
2023-01-28T02:01:25.640Z,3.67
2023-01-28T02:04:02.013Z,3.35
2023-01-28T02:06:36.184Z,4.00
2023-01-28T02:09:09.250Z,4.25
2023-01-28T02:11:39.500Z,4.10
2023-01-28T02:14:14.455Z,3.40
2023-01-28T02:16:44.495Z,3.97
2023-01-28T02:19:15.573Z,3.85
2023-01-28T02:22:20.049Z,4.10
2023-01-28T02:25:03.488Z,3.80
2023-01-28T02:27:40.927Z,3.75
2023-01-28T02:30:18.485Z,3.60
2023-01-28T02:32:56.358Z,4.18
2023-01-28T02:35:38.053Z,3.60
2023-01-28T02:38:13.994Z,3.95
2023-01-28T02:41:01.843Z,4.13
2023-01-28T02:43:36.555Z,3.85
2023-01-28T02:46:30.973Z,3.85
2023-01-28T02:49:01.707Z,3.58
2023-01-28T02:51:54.270Z,4.75
2023-01-28T02:54:34.598Z,4.03
2023-01-28T02:57:14.525Z,4.30
2023-01-28T02:59:52.331Z,4.18
2023-01-28T03:02:33.568Z,4.72
2023-01-28T03:05:08.538Z,4.15
2023-01-28T03:07:41.006Z,3.97
2023-01-28T03:10:16.104Z,4.70
2023-01-28T03:13:00.603Z,4.95
2023-01-28T03:15:47.743Z,5.40
2023-01-28T03:18:37.211Z,4.53
2023-01-28T03:21:24.599Z,5.05
2023-01-28T03:24:12.942Z,4.97
2023-01-28T03:27:01.928Z,5.25
2023-01-28T03:29:46.894Z,4.72
2023-01-28T03:32:29.380Z,4.85
2023-01-28T03:35:14.701Z,6.25
2023-01-28T03:37:44.753Z,5.25
2023-01-28T03:40:16.003Z,4.97
2023-01-28T03:42:45.778Z,4.78
2023-01-28T03:45:16.566Z,4.88
2023-01-28T03:47:46.686Z,5.15
2023-01-28T03:50:19.594Z,5.18
2023-01-28T03:52:49.428Z,5.63
2023-01-28T03:55:19.359Z,5.38
2023-01-28T03:57:49.204Z,4.82
2023-01-28T04:00:22.023Z,5.00
2023-01-28T04:02:51.954Z,5.03
2023-01-28T04:05:25.503Z,5.18
2023-01-28T04:07:57.510Z,5.18
2023-01-28T04:10:27.384Z,5.05
2023-01-28T04:12:57.181Z,5.47
2023-01-28T04:15:26.913Z,4.40
2023-01-28T04:17:56.702Z,4.82
2023-01-28T04:20:29.213Z,4.63
2023-01-28T04:22:59.057Z,5.65
2023-01-28T04:25:28.841Z,5.55
2023-01-28T04:27:58.765Z,5.60
2023-01-28T04:30:29.011Z,5.43
2023-01-28T04:32:58.852Z,5.47
2023-01-28T04:35:31.209Z,4.75
2023-01-28T04:38:00.937Z,5.63
2023-01-28T04:40:30.766Z,5.13
2023-01-28T04:43:01.314Z,5.93
2023-01-28T04:45:31.217Z,6.22
2023-01-28T04:48:01.131Z,4.93
2023-01-28T04:50:33.532Z,6.53
2023-01-28T04:53:03.285Z,5.70
2023-01-28T04:55:33.529Z,5.45
2023-01-28T04:58:03.286Z,5.53
2023-01-28T05:00:33.269Z,6.22
2023-01-28T05:03:03.095Z,6.18
2023-01-28T05:05:35.466Z,5.85
2023-01-28T05:08:05.281Z,6.18
2023-01-28T05:10:35.123Z,6.25
2023-01-28T05:13:04.886Z,6.20
2023-01-28T05:15:34.645Z,6.20
2023-01-28T05:18:04.457Z,5.68
2023-01-28T05:20:36.882Z,6.10
2023-01-28T05:23:06.895Z,7.25
2023-01-28T05:25:36.629Z,6.90
2023-01-28T05:28:06.541Z,11.77
2023-01-28T05:30:36.334Z,7.35
2023-01-28T05:33:06.141Z,9.20
2023-01-28T05:35:39.078Z,7.80
2023-01-28T05:38:09.043Z,7.25
2023-01-28T05:40:39.026Z,7.15
2023-01-28T05:43:08.768Z,6.72
2023-01-28T05:45:38.598Z,7.95
2023-01-28T05:48:09.248Z,7.03
2023-01-28T05:50:41.967Z,6.70
2023-01-28T05:53:12.394Z,7.15
2023-01-28T05:55:42.176Z,7.15
2023-01-28T05:58:11.979Z,8.07
2023-01-28T06:00:41.733Z,6.65
2023-01-28T06:03:11.529Z,7.30
2023-01-28T06:05:43.979Z,6.70
2023-01-28T06:08:13.898Z,7.72
2023-01-28T06:10:43.650Z,6.88
2023-01-28T06:13:13.457Z,7.07
2023-01-28T06:15:43.294Z,7.00
2023-01-28T06:18:13.738Z,6.35
2023-01-28T06:20:46.190Z,6.72
2023-01-28T06:23:15.956Z,7.28
2023-01-28T06:25:45.769Z,6.97
2023-01-28T06:28:16.317Z,7.25
2023-01-28T06:30:46.191Z,8.05
2023-01-28T06:33:16.070Z,7.68
2023-01-28T06:35:48.779Z,7.30
2023-01-28T06:38:18.818Z,7.65
2023-01-28T06:40:55.818Z,8.18
2023-01-28T06:43:27.778Z,8.20
2023-01-28T06:45:57.949Z,7.97
2023-01-28T06:48:28.514Z,8.18
2023-01-28T06:51:00.863Z,7.72
2023-01-28T06:53:30.734Z,8.48
2023-01-28T06:56:00.602Z,8.40
2023-01-28T06:58:30.381Z,8.02
2023-01-28T07:01:00.205Z,8.32
2023-01-28T07:03:30.054Z,7.90
2023-01-28T07:06:02.434Z,8.55
2023-01-28T07:08:33.106Z,7.97
2023-01-28T07:11:04.071Z,8.40
2023-01-28T07:13:34.088Z,8.48
2023-01-28T07:16:04.323Z,9.35
2023-01-28T07:18:34.114Z,8.45
2023-01-28T07:21:07.020Z,7.85
2023-01-28T07:23:36.796Z,8.98
2023-01-28T07:26:07.801Z,8.63
2023-01-28T07:28:37.706Z,9.32
2023-01-28T07:31:07.957Z,9.32
2023-01-28T07:33:37.810Z,8.48
2023-01-28T07:36:11.367Z,9.55
2023-01-28T07:38:41.174Z,8.90
2023-01-28T07:41:10.960Z,9.25
2023-01-28T07:43:40.909Z,9.13
2023-01-28T07:46:10.918Z,8.80
2023-01-28T07:48:40.727Z,8.75
2023-01-28T07:51:13.177Z,9.65
2023-01-28T07:53:43.038Z,9.25
2023-01-28T07:56:12.851Z,8.95
2023-01-28T07:58:42.918Z,8.40
2023-01-28T08:01:14.258Z,11.43
2023-01-28T08:03:44.106Z,10.15
2023-01-28T08:06:16.583Z,9.50
2023-01-28T08:08:46.999Z,10.00
2023-01-28T08:11:16.805Z,9.50
2023-01-28T08:13:46.559Z,9.30
2023-01-28T08:16:16.361Z,10.02
2023-01-28T08:18:46.182Z,9.35
2023-01-28T08:21:18.570Z,9.95
2023-01-28T08:23:48.387Z,10.02
2023-01-28T08:26:18.286Z,9.38
2023-01-28T08:28:49.980Z,10.73
2023-01-28T08:31:21.308Z,9.55
2023-01-28T08:33:51.100Z,10.30
2023-01-28T08:36:26.330Z,9.65
2023-01-28T08:38:56.828Z,10.00
2023-01-28T08:41:26.851Z,10.15
2023-01-28T08:43:56.680Z,9.65
2023-01-28T08:46:26.591Z,10.07
2023-01-28T08:48:56.402Z,10.02
2023-01-28T08:51:28.798Z,10.00
2023-01-28T08:53:58.596Z,9.82
2023-01-28T08:56:28.537Z,10.30
2023-01-28T08:58:58.371Z,9.68
2023-01-28T09:01:29.508Z,9.55
2023-01-28T09:03:59.521Z,10.60
2023-01-28T09:06:32.260Z,9.48
2023-01-28T09:09:02.517Z,9.80
2023-01-28T09:11:32.502Z,10.25
2023-01-28T09:14:02.402Z,10.80
2023-01-28T09:16:32.267Z,11.27
2023-01-28T09:19:02.080Z,10.70
2023-01-28T09:21:34.478Z,10.80
2023-01-28T09:24:04.331Z,10.93
2023-01-28T09:26:34.591Z,11.20
2023-01-28T09:29:04.394Z,10.50
2023-01-28T09:31:34.184Z,11.00
2023-01-28T09:34:04.237Z,11.27
2023-01-28T09:36:36.655Z,10.80
2023-01-28T09:39:07.454Z,11.65
2023-01-28T09:41:49.821Z,10.88
2023-01-28T09:44:37.722Z,11.75
2023-01-28T09:47:14.977Z,12.07
2023-01-28T09:49:49.989Z,11.48
2023-01-28T09:52:24.883Z,11.85
2023-01-28T09:55:05.760Z,11.48
2023-01-28T09:57:41.984Z,12.27
2023-01-28T10:00:18.346Z,10.82
2023-01-28T10:03:03.747Z,12.38
2023-01-28T10:05:40.954Z,11.55
2023-01-28T10:08:27.815Z,11.05
2023-01-28T10:11:05.863Z,11.15
2023-01-28T10:13:45.121Z,11.20
2023-01-28T10:16:32.125Z,12.63
2023-01-28T10:19:05.842Z,11.95
2023-01-28T10:21:40.679Z,10.15
2023-01-28T10:24:21.317Z,11.35
2023-01-28T10:26:51.343Z,11.63
2023-01-28T10:29:24.595Z,12.02
2023-01-28T10:31:56.387Z,12.05
2023-01-28T10:34:26.359Z,10.98
2023-01-28T10:36:57.521Z,12.18
2023-01-28T10:39:31.243Z,12.25
2023-01-28T10:42:01.064Z,10.95
2023-01-28T10:44:37.612Z,12.98
2023-01-28T10:47:15.488Z,11.07
2023-01-28T10:49:49.604Z,10.43
2023-01-28T10:52:19.947Z,11.18
2023-01-28T10:55:02.917Z,10.70
2023-01-28T10:57:32.903Z,10.65
2023-01-28T11:00:14.558Z,11.52
2023-01-28T11:02:45.038Z,12.50
2023-01-28T11:05:21.071Z,10.25
2023-01-28T11:07:51.568Z,11.73
2023-01-28T11:10:42.251Z,10.57
2023-01-28T11:13:19.699Z,18.23
2023-01-28T11:15:50.998Z,11.95
2023-01-28T11:18:25.159Z,11.77
2023-01-28T11:20:57.551Z,11.30
2023-01-28T11:23:29.831Z,10.52
2023-01-28T11:26:10.721Z,10.57
2023-01-28T11:28:45.572Z,10.80
2023-01-28T11:31:19.161Z,10.27
2023-01-28T11:33:53.904Z,11.10
2023-01-28T11:36:25.557Z,11.35
2023-01-28T11:38:57.733Z,10.73
2023-01-28T11:41:33.039Z,11.77
2023-01-28T11:44:12.300Z,11.52
2023-01-28T11:46:55.788Z,11.15
2023-01-28T11:49:35.710Z,11.73
2023-01-28T11:52:13.853Z,11.10
2023-01-28T11:54:56.968Z,11.18
2023-01-28T11:57:36.719Z,9.88
2023-01-28T12:00:27.726Z,10.05
2023-01-28T12:03:07.922Z,10.80
2023-01-28T12:05:48.743Z,8.90
2023-01-28T12:08:24.966Z,9.40
2023-01-28T12:11:44.101Z,11.10
2023-01-28T12:14:28.685Z,10.88
2023-01-28T12:17:10.247Z,9.52
2023-01-28T12:19:52.261Z,9.82
2023-01-28T12:23:06.365Z,10.50
2023-01-28T12:25:46.329Z,10.30
2023-01-28T12:28:24.441Z,10.48
2023-01-28T12:31:11.945Z,9.93
2023-01-28T12:34:18.329Z,11.13
2023-01-28T12:36:58.922Z,10.80
2023-01-28T12:39:43.872Z,10.35
2023-01-28T12:42:18.089Z,10.65
2023-01-28T12:44:54.216Z,10.73
2023-01-28T12:47:32.229Z,9.00
2023-01-28T12:50:07.388Z,11.18
2023-01-28T12:52:42.407Z,11.73
2023-01-28T12:55:19.203Z,11.50
2023-01-28T12:57:52.162Z,12.05
2023-01-28T13:00:30.065Z,11.30
2023-01-28T13:03:13.558Z,10.73
2023-01-28T13:05:49.285Z,11.60
2023-01-28T13:08:25.984Z,10.90
2023-01-28T13:10:57.812Z,10.90
2023-01-28T13:13:33.550Z,10.02
2023-01-28T13:16:04.649Z,11.13
2023-01-28T13:18:46.773Z,10.27
2023-01-28T13:21:19.949Z,10.63
2023-01-28T13:23:51.564Z,10.27
2023-01-28T13:26:33.491Z,9.95
2023-01-28T13:29:22.682Z,9.82
2023-01-28T13:31:54.417Z,9.55
2023-01-28T13:34:40.544Z,8.65
2023-01-28T13:37:23.961Z,9.82
2023-01-28T13:39:58.514Z,8.70
2023-01-28T13:44:59.786Z,8.93
2023-01-28T13:47:34.757Z,9.70
2023-01-28T13:50:10.632Z,9.30
2023-01-28T13:52:48.195Z,9.10
2023-01-28T13:55:37.540Z,9.73
2023-01-28T13:58:39.081Z,9.63
2023-01-28T14:01:44.671Z,8.65
2023-01-28T14:04:53.505Z,8.27
2023-01-28T14:07:48.982Z,7.47
2023-01-28T14:10:36.318Z,8.02
2023-01-28T14:13:40.993Z,7.70
2023-01-28T14:16:33.617Z,7.97
2023-01-28T14:19:07.056Z,7.75
2023-01-28T14:21:38.287Z,7.95
2023-01-28T14:24:18.615Z,7.20
2023-01-28T14:26:59.924Z,7.32
2023-01-28T14:29:50.451Z,6.85
2023-01-28T14:32:22.612Z,7.25
2023-01-28T14:34:52.499Z,6.93
2023-01-28T14:37:25.305Z,6.28
2023-01-28T14:40:01.311Z,6.88
2023-01-28T14:42:35.527Z,6.93
2023-01-28T14:45:22.381Z,5.95
2023-01-28T14:48:28.059Z,6.35
2023-01-28T14:51:21.694Z,6.60
2023-01-28T14:54:06.943Z,6.07
2023-01-28T14:56:56.158Z,6.68
2023-01-28T14:59:29.379Z,6.55
2023-01-28T15:02:02.144Z,5.97
2023-01-28T15:04:34.995Z,5.70
2023-01-28T15:07:20.836Z,5.97
2023-01-28T15:09:51.151Z,5.72
2023-01-28T15:12:23.580Z,6.40
2023-01-28T15:14:53.608Z,6.30
2023-01-28T15:17:28.850Z,5.60
2023-01-28T15:20:00.424Z,5.32
2023-01-28T15:22:31.837Z,6.05
2023-01-28T15:25:01.617Z,6.63
2023-01-28T15:27:34.313Z,5.90
2023-01-28T15:30:04.199Z,6.03
2023-01-28T15:32:34.692Z,5.80
2023-01-28T15:35:04.562Z,6.22
2023-01-28T15:37:34.461Z,5.70
2023-01-28T15:40:06.132Z,5.90
2023-01-28T15:42:40.103Z,6.45
2023-01-28T15:45:18.906Z,6.03
2023-01-28T15:47:49.547Z,5.07
2023-01-28T15:50:22.768Z,4.75
2023-01-28T15:52:55.625Z,5.97
2023-01-28T15:55:40.379Z,6.53
2023-01-28T15:58:22.886Z,5.85
2023-01-28T16:00:53.111Z,6.35
2023-01-28T16:03:24.746Z,6.20
2023-01-28T16:06:01.460Z,5.18
2023-01-28T16:08:36.845Z,5.43
2023-01-28T16:11:07.014Z,6.13
2023-01-28T16:13:45.549Z,5.63
2023-01-28T16:16:15.714Z,6.60
2023-01-28T16:18:50.525Z,5.65
2023-01-28T16:21:24.822Z,5.65
2023-01-28T16:23:56.240Z,4.72
2023-01-28T16:26:27.786Z,6.00
2023-01-28T16:29:00.314Z,5.90
2023-01-28T16:31:30.155Z,5.40
2023-01-28T16:33:59.998Z,5.55
2023-01-28T16:36:29.842Z,5.60
2023-01-28T16:38:59.811Z,5.72
2023-01-28T16:41:35.433Z,5.25
2023-01-28T16:44:08.145Z,5.55
2023-01-28T16:46:38.129Z,5.35
2023-01-28T16:49:08.039Z,5.93
2023-01-28T16:51:39.022Z,5.88
2023-01-28T16:54:09.322Z,6.85
2023-01-28T16:56:45.678Z,5.70
2023-01-28T16:59:19.525Z,6.20
2023-01-28T17:01:49.992Z,6.15
2023-01-28T17:04:19.948Z,6.07
2023-01-28T17:06:49.760Z,7.10
2023-01-28T17:09:19.599Z,7.20
2023-01-28T17:11:49.428Z,7.95
2023-01-28T17:14:21.878Z,7.85
2023-01-28T17:16:51.927Z,8.45
2023-01-28T17:19:22.181Z,7.82
2023-01-28T17:21:52.066Z,8.45
2023-01-28T17:24:22.237Z,7.88
2023-01-28T17:26:54.834Z,5.80
2023-01-28T17:29:27.255Z,7.35
2023-01-28T17:31:57.109Z,7.43
2023-01-28T17:34:26.891Z,7.95
2023-01-28T17:36:56.638Z,8.45
2023-01-28T17:39:26.678Z,8.18
2023-01-28T17:41:56.491Z,8.05
2023-01-28T17:44:28.893Z,6.68
2023-01-28T17:46:58.693Z,6.75
2023-01-28T17:49:28.627Z,7.03
2023-01-28T17:51:58.638Z,7.40
2023-01-28T17:54:29.438Z,7.90
2023-01-28T17:56:59.245Z,8.00
2023-01-28T17:59:31.824Z,6.97
2023-01-28T18:02:01.612Z,8.18
2023-01-28T18:04:31.496Z,7.63
2023-01-28T18:07:01.283Z,6.88
2023-01-28T18:09:31.056Z,6.53
2023-01-28T18:12:00.868Z,7.35
2023-01-28T18:14:33.405Z,7.80
2023-01-28T18:17:03.794Z,6.65
2023-01-28T18:19:33.667Z,7.93
2023-01-28T18:22:03.865Z,7.60
2023-01-28T18:24:33.861Z,7.38
2023-01-28T18:27:04.279Z,8.10
2023-01-28T18:29:36.755Z,8.23
2023-01-28T18:32:07.233Z,8.38
2023-01-28T18:34:37.259Z,7.82
2023-01-28T18:37:08.494Z,8.52
2023-01-28T18:39:39.816Z,8.25
2023-01-28T18:42:09.975Z,8.18
2023-01-28T18:44:42.549Z,7.80
2023-01-28T18:47:12.454Z,8.07
2023-01-28T18:49:44.114Z,7.55
2023-01-28T18:52:14.033Z,8.30
2023-01-28T18:54:44.062Z,7.88
2023-01-28T18:57:14.009Z,7.80
2023-01-28T18:59:46.465Z,7.75
2023-01-28T19:02:17.186Z,7.53
2023-01-28T19:04:47.034Z,7.85
2023-01-28T19:07:16.875Z,14.23
2023-01-28T19:09:47.186Z,9.48
2023-01-28T19:12:17.027Z,9.25
2023-01-28T19:14:49.519Z,8.20
2023-01-28T19:17:19.565Z,7.82
2023-01-28T19:19:50.408Z,6.93
2023-01-28T19:22:20.253Z,8.43
2023-01-28T19:24:50.062Z,9.25
2023-01-28T19:27:19.848Z,8.93
2023-01-28T19:29:52.243Z,8.57
2023-01-28T19:32:22.067Z,8.38
2023-01-28T19:34:51.899Z,8.05
2023-01-28T19:37:21.694Z,8.48
2023-01-28T19:39:51.567Z,9.10
2023-01-28T19:42:21.433Z,8.55
2023-01-28T19:44:53.925Z,7.47
2023-01-28T19:47:23.860Z,8.50
2023-01-28T19:49:53.729Z,9.10
2023-01-28T19:52:23.510Z,8.82
2023-01-28T19:54:53.494Z,12.10
2023-01-28T19:57:23.318Z,9.52
2023-01-28T19:59:55.752Z,9.20
2023-01-28T20:02:25.537Z,9.07
2023-01-28T20:05:00.993Z,9.45
2023-01-28T20:07:31.246Z,8.20
2023-01-28T20:10:01.097Z,8.82
2023-01-28T20:12:31.147Z,8.90
2023-01-28T20:15:03.680Z,8.13
2023-01-28T20:17:33.536Z,9.10
2023-01-28T20:20:04.764Z,8.02
2023-01-28T20:22:38.399Z,8.30
2023-01-28T20:25:10.431Z,8.18
2023-01-28T20:27:40.234Z,8.05
2023-01-28T20:30:14.519Z,8.35
2023-01-28T20:32:44.278Z,7.95
2023-01-28T20:35:14.457Z,7.97
2023-01-28T20:37:44.421Z,7.80
2023-01-28T20:40:15.990Z,7.85
2023-01-28T20:42:45.807Z,8.20
2023-01-28T20:45:18.443Z,7.82
2023-01-28T20:47:48.255Z,8.90
2023-01-28T20:50:18.851Z,7.65
2023-01-28T20:52:48.818Z,7.45
2023-01-28T20:55:19.039Z,8.77
2023-01-28T20:57:48.911Z,7.43
2023-01-28T21:00:22.632Z,7.18
2023-01-28T21:02:52.588Z,7.68
2023-01-28T21:05:22.597Z,7.65
2023-01-28T21:07:52.426Z,7.22
2023-01-28T21:10:22.510Z,8.07
2023-01-28T21:12:52.628Z,7.57
2023-01-28T21:15:25.104Z,7.90
2023-01-28T21:17:54.963Z,8.02
2023-01-28T21:20:24.829Z,7.88
2023-01-28T21:22:55.162Z,8.30
2023-01-28T21:25:26.792Z,7.35
2023-01-28T21:27:56.617Z,8.02
2023-01-28T21:30:29.171Z,8.13
2023-01-28T21:32:58.986Z,7.95
2023-01-28T21:35:28.888Z,8.27
2023-01-28T21:37:58.711Z,6.43
2023-01-28T21:40:28.874Z,7.25
2023-01-28T21:42:58.774Z,6.60
2023-01-28T21:45:32.108Z,7.32
2023-01-28T21:48:01.949Z,6.68
2023-01-28T21:50:51.751Z,7.32
2023-01-28T21:53:21.525Z,6.40
2023-01-28T21:55:51.538Z,6.45
2023-01-28T21:58:33.895Z,7.15
2023-01-28T22:01:11.374Z,7.05
2023-01-28T22:03:41.259Z,6.07
2023-01-28T22:06:11.180Z,6.28
2023-01-28T22:08:41.290Z,6.47
2023-01-28T22:11:11.691Z,6.47
2023-01-28T22:13:42.697Z,6.82
2023-01-28T22:16:15.231Z,6.70
2023-01-28T22:18:46.690Z,6.35
2023-01-28T22:21:16.622Z,6.28
2023-01-28T22:23:46.497Z,6.10
2023-01-28T22:26:16.308Z,6.32
2023-01-28T22:28:46.183Z,5.55
2023-01-28T22:31:19.588Z,6.63
2023-01-28T22:33:49.579Z,5.80
2023-01-28T22:36:19.482Z,6.35
2023-01-28T22:38:49.298Z,6.40
2023-01-28T22:41:23.137Z,5.95
2023-01-28T22:43:54.325Z,5.95
2023-01-28T22:46:27.547Z,6.45
2023-01-28T22:48:57.324Z,6.30
2023-01-28T22:51:29.290Z,7.05
2023-01-28T22:54:00.095Z,6.57
2023-01-28T22:56:32.530Z,7.28
2023-01-28T22:59:03.662Z,6.47
2023-01-28T23:01:36.901Z,7.07
2023-01-28T23:04:06.971Z,7.50
2023-01-28T23:06:37.409Z,7.82
2023-01-28T23:09:07.341Z,6.90
2023-01-28T23:11:37.297Z,6.47
2023-01-28T23:14:19.787Z,6.35
2023-01-28T23:17:05.513Z,6.30
2023-01-28T23:19:48.076Z,6.47
2023-01-28T23:22:35.221Z,6.28
2023-01-28T23:25:05.712Z,7.18
2023-01-28T23:27:35.618Z,6.35
2023-01-28T23:30:05.777Z,6.72
2023-01-28T23:32:40.181Z,6.60
2023-01-28T23:37:40.108Z,6.18
2023-01-28T23:40:11.905Z,6.40
2023-01-28T23:42:41.924Z,6.40
2023-01-28T23:45:13.536Z,6.05
2023-01-28T23:47:45.992Z,6.43
2023-01-28T23:50:16.216Z,5.90
2023-01-28T23:52:46.219Z,6.47
2023-01-28T23:55:16.089Z,6.55
2023-01-28T23:57:46.169Z,6.18
